Time;durP1;ratioP1;P1;durP2;ratioP2;P2;SDS_P1;SDS_P2;PMS_P1;PMS_P2;Temp;Humidity;BMP_temperature;BMP_pressure;BME280_temperature;BME280_humidity;BME280_pressure;Samples;Min_cycle;Max_cycle;Signal;HPM_P1;HPM_P2
2024/04/19 00:02:09;;;;;;;1.00;1.00;;;;;;;1.73;100.00;98770.06;6279098;22;19996;-90
2024/04/19 00:04:35;;;;;;;0.95;0.95;;;;;;;1.69;100.00;98760.16;6236729;22;20000;-91
2024/04/19 00:07:02;;;;;;;0.90;0.90;;;;;;;1.74;100.00;98766.63;6278286;22;20053;-91
2024/04/19 00:09:42;;;;;;;1.00;1.00;;;;;;;1.87;100.00;98763.06;6278521;22;20025;-91
2024/04/19 00:12:07;;;;;;;0.95;0.95;;;;;;;1.96;100.00;98758.34;6237051;22;20004;-90
2024/04/19 00:14:33;;;;;;;1.00;1.00;;;;;;;1.74;100.00;98752.56;6236720;22;20004;-91
2024/04/19 00:16:59;;;;;;;0.90;0.90;;;;;;;1.67;100.00;98747.69;6278378;22;20019;-91
2024/04/19 00:19:25;;;;;;;1.00;1.00;;;;;;;1.60;100.00;98756.94;6278905;22;20662;-90
2024/04/19 00:21:51;;;;;;;1.00;1.00;;;;;;;1.60;100.00;98754.31;6197996;22;20016;-89
2024/04/19 00:24:16;;;;;;;0.90;0.90;;;;;;;1.64;100.00;98748.44;6278850;22;20073;-91
2024/04/19 00:26:41;;;;;;;1.00;1.00;;;;;;;1.54;100.00;98753.91;6238409;22;20337;-91
2024/04/19 00:29:08;;;;;;;1.00;1.00;;;;;;;1.60;100.00;98750.78;6282187;22;20016;-92
2024/04/19 00:31:33;;;;;;;1.00;1.00;;;;;;;1.47;100.00;98738.53;6202028;22;20015;-91
2024/04/19 00:33:59;;;;;;;1.00;1.00;;;;;;;1.34;100.00;98739.47;6240688;22;19997;-90
2024/04/19 00:36:25;;;;;;;1.00;1.00;;;;;;;1.24;100.00;98737.94;6237263;22;20036;-91
2024/04/19 00:38:53;;;;;;;1.00;1.00;;;;;;;1.24;100.00;98745.84;6237237;22;20391;-90
2024/04/19 00:41:20;;;;;;;;;;;;;;;1.22;100.00;98741.31;6237609;22;20004;-91
2024/04/19 00:43:45;;;;;;;1.08;1.08;;;;;;;1.09;100.00;98738.66;6237944;22;19924;-92
2024/04/19 00:46:11;;;;;;;1.00;1.00;;;;;;;0.93;100.00;98736.75;6278629;22;20011;-91
2024/04/19 00:48:37;;;;;;;1.00;1.00;;;;;;;0.98;100.00;98740.59;6236882;22;20019;-90
2024/04/19 00:51:04;;;;;;;1.00;1.00;;;;;;;1.11;100.00;98737.06;6236697;22;19996;-91
2024/04/19 00:53:31;;;;;;;1.00;1.00;;;;;;;0.94;100.00;98738.56;6236317;22;20471;-92
2024/04/19 00:56:17;;;;;;;1.10;1.10;;;;;;;0.93;100.00;98739.38;6274795;22;20029;-90
2024/04/19 00:58:43;;;;;;;1.00;1.00;;;;;;;0.71;100.00;98734.41;6233249;22;20016;-90
2024/04/19 01:01:11;;;;;;;1.02;1.02;;;;;;;0.70;100.00;98735.22;6233286;22;20012;-91
2024/04/19 01:03:36;;;;;;;1.00;1.00;;;;;;;0.65;100.00;98729.66;6273422;22;19996;-91
2024/04/19 01:06:02;;;;;;;1.00;1.00;;;;;;;0.63;100.00;98733.91;6231953;22;20055;-91
2024/04/19 01:08:29;;;;;;;1.10;1.10;;;;;;;0.79;100.00;98732.31;6273314;22;20000;-90
2024/04/19 01:10:55;;;;;;;1.10;1.10;;;;;;;0.90;100.00;98726.03;6275169;22;20000;-91
2024/04/19 01:13:20;;;;;;;1.10;1.10;;;;;;;1.08;100.00;98727.25;6196385;22;20074;-90
2024/04/19 01:15:47;;;;;;;1.00;1.00;;;;;;;1.04;100.00;98719.97;6277107;22;20008;-90
2024/04/19 01:18:14;;;;;;;1.10;1.10;;;;;;;1.24;100.00;98729.16;6197218;22;20001;-91
2024/04/19 01:20:39;;;;;;;1.10;1.10;;;;;;;1.39;100.00;98723.97;6236362;22;20025;-90
2024/04/19 01:23:05;;;;;;;1.10;1.10;;;;;;;1.38;100.00;98719.53;6196487;22;19993;-90
2024/04/19 01:25:36;;;;;;;1.00;1.00;;;;;;;1.40;100.00;98708.34;6276270;22;20007;-90
2024/04/19 01:28:10;;;;;;;1.00;1.00;;;;;;;1.42;100.00;98716.31;6277000;22;20032;-91
2024/04/19 01:30:40;;;;;;;1.00;1.00;;;;;;;1.56;100.00;98709.31;6277627;22;20036;-92
2024/04/19 01:33:06;;;;;;;1.00;1.00;;;;;;;1.75;100.00;98709.66;6235738;22;20668;-91
2024/04/19 01:35:31;;;;;;;1.00;1.00;;;;;;;1.64;100.00;98708.09;6278136;22;20459;-91
2024/04/19 01:37:57;;;;;;;1.00;1.00;;;;;;;1.63;100.00;98701.91;6236135;22;20001;-92
2024/04/19 01:40:22;;;;;;;1.10;1.10;;;;;;;1.80;100.00;98703.88;6277553;22;20012;-91
2024/04/19 01:42:48;;;;;;;1.00;1.00;;;;;;;1.88;100.00;98700.81;6236287;22;20001;-90
2024/04/19 01:45:13;;;;;;;0.90;0.90;;;;;;;1.89;100.00;98692.13;6236265;22;20049;-89
2024/04/19 01:47:39;;;;;;;1.00;1.00;;;;;;;1.95;100.00;98693.38;6277278;22;20001;-89
2024/04/19 01:50:07;;;;;;;1.00;1.00;;;;;;;1.88;100.00;98688.56;6274829;22;20057;-91
2024/04/19 01:52:33;;;;;;;1.00;1.00;;;;;;;1.85;100.00;98685.75;6231225;22;20057;-91
2024/04/19 01:54:59;;;;;;;1.00;1.00;;;;;;;1.79;100.00;98680.09;6230501;22;20001;-90
2024/04/19 01:57:24;;;;;;;1.00;1.00;;;;;;;1.90;100.00;98672.88;6232835;22;20212;-90
2024/04/19 01:59:50;;;;;;;1.10;1.10;;;;;;;1.78;100.00;98681.84;6232635;22;20005;-91
2024/04/19 02:02:15;;;;;;;1.10;1.10;;;;;;;1.89;100.00;98671.06;6231401;22;20081;-91
2024/04/19 02:04:41;;;;;;;1.00;1.00;;;;;;;1.94;100.00;98670.53;6191420;22;19996;-91
2024/04/19 02:07:06;;;;;;;1.00;1.00;;;;;;;1.89;100.00;98673.69;6230636;22;20004;-91
2024/04/19 02:09:35;;;;;;;1.00;1.00;;;;;;;1.80;100.00;98672.31;6230474;22;20089;-90
2024/04/19 02:12:03;;;;;;;1.00;1.00;;;;;;;1.80;100.00;98667.03;6228878;22;20001;-90
2024/04/19 02:14:30;;;;;;;1.00;1.00;;;;;;;1.93;100.00;98668.72;6231699;22;20054;-90
2024/04/19 02:16:57;;;;;;;1.10;1.10;;;;;;;1.90;100.00;98671.16;6231236;22;19996;-91
2024/04/19 02:19:23;;;;;;;1.02;1.02;;;;;;;1.98;100.00;98663.75;6274737;22;20008;-91
2024/04/19 02:21:49;;;;;;;1.10;1.10;;;;;;;1.86;100.00;98655.97;6233815;22;19997;-91
2024/04/19 02:24:16;;;;;;;1.00;1.00;;;;;;;2.03;100.00;98651.78;6274204;22;19996;-90
2024/04/19 02:26:41;;;;;;;;;;;;;;;1.99;100.00;98642.78;6276411;22;20015;-90
2024/04/19 02:31:51;;;;;;;1.00;1.00;;;;;;;1.98;100.00;98640.97;6240238;22;20119;-92
2024/04/19 02:34:17;;;;;;;1.00;1.00;;;;;;;2.03;100.00;98641.25;6275448;22;20404;-91
2024/04/19 02:36:42;;;;;;;0.90;0.90;;;;;;;2.03;100.00;98633.34;6234943;22;20036;-90
2024/04/19 02:39:08;;;;;;;1.00;1.00;;;;;;;1.97;100.00;98625.09;6277077;22;20004;-91
2024/04/19 02:41:34;;;;;;;1.00;1.00;;;;;;;2.05;100.00;98632.63;6276845;22;20041;-90
2024/04/19 02:43:59;;;;;;;1.08;1.08;;;;;;;2.04;100.00;98624.63;6276841;22;20004;-89
2024/04/19 02:46:26;;;;;;;1.00;1.00;;;;;;;2.09;100.00;98624.91;6235950;22;20004;-88
2024/04/19 02:48:51;;;;;;;1.03;1.03;;;;;;;2.15;100.00;98622.66;6236208;22;20013;-88
2024/04/19 02:51:18;;;;;;;0.93;0.93;;;;;;;2.09;100.00;98617.94;6236719;22;20036;-90
2024/04/19 02:53:44;;;;;;;1.10;1.10;;;;;;;2.00;100.00;98614.75;6278019;22;20011;-90
2024/04/19 02:56:09;;;;;;;1.00;1.00;;;;;;;2.00;100.00;98617.38;6244072;22;20004;-90
2024/04/19 02:58:35;;;;;;;1.00;1.00;;;;;;;1.99;100.00;98615.56;6236966;22;20000;-90
2024/04/19 03:01:00;;;;;;;0.90;0.90;;;;;;;2.10;100.00;98613.56;6197902;22;20004;-90
2024/04/19 03:03:26;;;;;;;1.00;1.00;;;;;;;2.10;100.00;98606.56;6198774;22;20011;-89
2024/04/19 03:05:54;;;;;;;1.00;1.00;;;;;;;2.16;100.00;98599.06;6238205;22;20029;-90
2024/04/19 03:08:20;;;;;;;0.93;0.93;;;;;;;2.34;100.00;98603.59;6238107;22;20563;-90
2024/04/19 03:10:45;;;;;;;1.00;1.00;;;;;;;2.49;100.00;98596.59;6280729;22;20007;-90
2024/04/19 03:13:11;;;;;;;1.00;1.00;;;;;;;2.46;100.00;98593.78;6239756;22;20089;-90
2024/04/19 03:15:37;;;;;;;0.90;0.90;;;;;;;2.31;100.00;98597.34;6208672;22;20015;-91
2024/04/19 03:18:04;;;;;;;1.00;1.00;;;;;;;2.43;100.00;98602.41;6255009;22;20001;-91
2024/04/19 03:20:30;;;;;;;1.08;1.08;;;;;;;2.40;100.00;98596.06;6254437;22;20005;-90
2024/04/19 03:22:55;;;;;;;1.00;1.00;;;;;;;2.43;100.00;98593.59;6256652;22;20015;-91
2024/04/19 03:25:20;;;;;;;1.00;1.00;;;;;;;2.36;100.00;98581.81;6221244;22;20008;-91
2024/04/19 03:27:48;;;;;;;1.00;1.00;;;;;;;2.37;100.00;98582.72;6301162;22;20000;-92
2024/04/19 03:30:24;;;;;;;0.90;0.90;;;;;;;2.55;100.00;98575.91;6262430;22;19996;-93
2024/04/19 03:32:49;;;;;;;1.00;1.00;;;;;;;2.42;100.00;98573.38;6261908;22;19989;-91
2024/04/19 03:35:15;;;;;;;1.00;1.00;;;;;;;2.50;100.00;98569.47;6260088;22;20003;-93
2024/04/19 03:37:40;;;;;;;0.90;0.90;;;;;;;2.61;100.00;98563.06;6298845;22;20013;-92
2024/04/19 03:40:06;;;;;;;1.00;1.00;;;;;;;2.66;100.00;98561.59;6259344;22;20046;-93
2024/04/19 03:42:32;;;;;;;0.95;0.95;;;;;;;2.72;100.00;98559.31;6298493;22;20021;-93
2024/04/19 03:47:41;;;;;;;0.90;0.90;;;;;;;2.73;100.00;98550.63;6279318;22;20008;-90
2024/04/19 03:50:07;;;;;;;0.90;0.90;;;;;;;2.76;100.00;98556.03;6199019;22;20005;-90
2024/04/19 03:52:32;;;;;;;0.90;0.90;;;;;;;2.70;100.00;98558.34;6238152;22;20033;-90
2024/04/19 03:54:58;;;;;;;0.90;0.90;;;;;;;2.80;100.00;98555.41;6199036;22;20005;-91
2024/04/19 03:57:24;;;;;;;1.00;1.00;;;;;;;2.80;100.00;98550.13;6238167;22;20045;-90
2024/04/19 03:59:50;;;;;;;0.90;0.90;;;;;;;2.74;100.00;98552.41;6197781;22;20004;-91
2024/04/19 04:02:15;;;;;;;0.90;0.90;;;;;;;2.90;100.00;98554.19;6199400;22;20056;-93
2024/04/19 04:04:54;;;;;;;1.00;1.00;;;;;;;2.83;100.00;98542.41;6237650;22;20078;-90
2024/04/19 04:07:19;;;;;;;0.80;0.80;;;;;;;2.83;100.00;98537.13;6278872;22;20009;-91
2024/04/19 04:09:45;;;;;;;1.00;1.00;;;;;;;2.82;100.00;98542.28;6278988;22;19996;-90
2024/04/19 04:12:10;;;;;;;0.90;0.90;;;;;;;2.91;100.00;98534.91;6236139;22;19997;-90
2024/04/19 04:14:36;;;;;;;0.90;0.90;;;;;;;2.95;100.00;98528.09;6278911;22;20033;-90
2024/04/19 04:17:01;;;;;;;0.90;0.90;;;;;;;2.88;100.00;98529.50;6278478;22;20411;-90
2024/04/19 04:19:27;;;;;;;1.00;1.00;;;;;;;2.89;100.00;98519.84;6198437;22;20012;-90
2024/04/19 04:21:53;;;;;;;0.90;0.90;;;;;;;2.82;100.00;98524.75;6235916;22;20081;-90
2024/04/19 04:24:18;;;;;;;0.82;0.82;;;;;;;2.89;100.00;98518.13;6237274;22;20011;-90
2024/04/19 04:26:43;;;;;;;0.90;0.90;;;;;;;2.92;100.00;98523.53;6237649;22;20015;-92
2024/04/19 04:29:09;;;;;;;0.90;0.90;;;;;;;3.02;100.00;98514.44;6278888;22;20000;-91
2024/04/19 04:31:35;;;;;;;0.90;0.90;;;;;;;2.98;100.00;98517.72;6236077;22;20012;-90
2024/04/19 04:34:01;;;;;;;0.90;0.90;;;;;;;3.04;100.00;98507.53;6279011;22;20001;-91
2024/04/19 04:36:27;;;;;;;1.10;1.10;;;;;;;3.09;100.00;98511.31;6237967;22;20311;-91
2024/04/19 04:38:52;;;;;;;0.80;0.80;;;;;;;3.06;100.00;98501.50;6237786;22;20434;-91
2024/04/19 04:41:19;;;;;;;0.90;0.90;;;;;;;3.23;100.00;98498.88;6198799;22;20012;-90
2024/04/19 04:43:44;;;;;;;0.90;0.90;;;;;;;3.19;100.00;98494.25;6278836;22;20015;-91
2024/04/19 04:46:10;;;;;;;0.80;0.80;;;;;;;3.28;100.00;98502.66;6278728;22;20081;-91
2024/04/19 04:48:35;;;;;;;0.90;0.90;;;;;;;3.22;100.00;98503.25;6198818;22;20012;-90
2024/04/19 04:51:01;;;;;;;0.90;0.90;;;;;;;3.24;100.00;98504.22;6237185;22;20045;-90
2024/04/19 04:53:26;;;;;;;0.90;0.90;;;;;;;3.19;100.00;98495.16;6277573;22;20396;-92
2024/04/19 04:55:53;;;;;;;0.90;0.90;;;;;;;3.20;100.00;98496.97;6237845;22;20005;-91
2024/04/19 04:58:19;;;;;;;0.90;0.90;;;;;;;3.27;100.00;98493.84;6279016;22;20484;-91
2024/04/19 05:00:47;;;;;;;0.93;0.93;;;;;;;3.26;100.00;98494.69;6317886;22;20012;-92
2024/04/19 05:03:14;;;;;;;0.90;0.90;;;;;;;3.32;100.00;98489.72;6237456;22;20029;-93
2024/04/19 05:05:40;;;;;;;0.90;0.90;;;;;;;3.36;99.68;98489.91;6238051;22;20023;-93
2024/04/19 05:08:06;;;;;;;1.00;1.00;;;;;;;3.44;99.55;98494.72;6198042;22;20000;-91
2024/04/19 05:10:31;;;;;;;0.90;0.90;;;;;;;3.41;99.71;98493.69;6198902;22;20079;-91
2024/04/19 05:12:57;;;;;;;0.90;0.90;;;;;;;3.39;99.93;98490.94;6279610;22;20001;-91
2024/04/19 05:15:23;;;;;;;0.90;0.90;;;;;;;3.49;100.00;98487.97;6197450;22;20424;-91
2024/04/19 05:17:49;;;;;;;0.90;0.90;;;;;;;3.56;99.32;98478.66;6278327;22;19996;-90
2024/04/19 05:20:15;;;;;;;0.80;0.80;;;;;;;3.71;95.56;98476.81;6316137;22;20001;-91
2024/04/19 05:22:40;;;;;;;0.85;0.85;;;;;;;3.75;93.28;98472.63;6196694;22;19996;-90
2024/04/19 05:25:07;;;;;;;0.90;0.90;;;;;;;3.82;92.17;98473.00;6277650;22;20001;-90
2024/04/19 05:27:33;;;;;;;1.00;1.00;;;;;;;3.97;92.47;98471.94;6196206;22;20001;-90
2024/04/19 05:29:58;;;;;;;0.90;0.90;;;;;;;3.95;92.62;98477.16;6278166;22;20015;-90
2024/04/19 05:32:24;;;;;;;1.00;1.00;;;;;;;4.32;87.79;98468.47;6236149;22;20012;-90
2024/04/19 05:34:49;;;;;;;0.90;0.90;;;;;;;4.43;89.58;98469.88;6278576;22;20008;-90
2024/04/19 05:37:15;;;;;;;0.90;0.90;;;;;;;4.61;85.09;98462.84;6198520;22;20352;-89
2024/04/19 05:39:40;;;;;;;0.80;0.80;;;;;;;5.01;81.98;98461.16;6197083;22;20006;-89
2024/04/19 05:42:06;;;;;;;0.93;0.93;;;;;;;5.18;78.98;98454.94;6276940;22;19996;-90
2024/04/19 05:44:32;;;;;;;0.80;0.80;;;;;;;5.22;79.48;98450.66;6192760;22;20011;-90
2024/04/19 05:46:58;;;;;;;0.90;0.90;;;;;;;5.33;79.49;98449.41;6312660;22;19996;-90
2024/04/19 05:49:24;;;;;;;0.80;0.80;;;;;;;5.42;77.33;98456.88;6311823;22;20309;-89
2024/04/19 05:51:49;;;;;;;0.80;0.80;;;;;;;5.61;78.01;98457.75;6230546;22;20004;-90
2024/04/19 05:54:15;;;;;;;0.80;0.80;;;;;;;5.73;75.99;98462.66;6232507;22;20016;-90
2024/04/19 05:56:40;;;;;;;0.80;0.80;;;;;;;5.76;76.27;98465.44;6234050;22;20064;-92
2024/04/19 05:59:06;;;;;;;0.82;0.82;;;;;;;5.79;76.51;98462.91;6232059;22;20513;-90
2024/04/19 06:01:33;;;;;;;0.90;0.90;;;;;;;5.74;76.60;98461.81;6194020;22;19996;-91
2024/04/19 06:03:59;;;;;;;0.80;0.80;;;;;;;5.79;77.30;98462.91;6232047;22;20600;-90
2024/04/19 06:06:24;;;;;;;0.80;0.80;;;;;;;5.88;76.10;98463.31;6194208;22;20011;-89
2024/04/19 06:08:50;;;;;;;0.88;0.88;;;;;;;5.95;75.68;98447.75;6236024;22;20068;-89
2024/04/19 06:11:16;;;;;;;0.90;0.90;;;;;;;6.05;75.30;98449.94;6235637;22;20001;-90
2024/04/19 06:13:42;;;;;;;0.90;0.90;;;;;;;6.14;74.53;98455.63;6198811;22;20032;-89
2024/04/19 06:16:10;;;;;;;0.95;0.95;;;;;;;6.20;74.63;98444.38;6242918;22;20004;-89
2024/04/19 06:18:36;;;;;;;0.80;0.80;;;;;;;6.39;74.45;98447.84;6236280;22;20133;-89
2024/04/19 06:21:02;;;;;;;0.90;0.90;;;;;;;6.32;74.01;98444.88;6195895;22;20004;-87
2024/04/19 06:23:28;;;;;;;0.90;0.90;;;;;;;6.21;73.80;98452.38;6196571;22;20012;-88
2024/04/19 06:25:55;;;;;;;0.80;0.80;;;;;;;6.22;75.04;98442.69;6233486;22;19996;-89
2024/04/19 06:28:22;;;;;;;0.80;0.80;;;;;;;6.16;74.85;98438.94;6229942;22;20005;-90
2024/04/19 06:30:47;;;;;;;0.90;0.90;;;;;;;6.08;74.83;98443.00;6233236;22;20408;-89
2024/04/19 06:33:13;;;;;;;0.90;0.90;;;;;;;5.99;75.87;98441.72;6275665;22;20007;-89
2024/04/19 06:35:38;;;;;;;0.90;0.90;;;;;;;5.95;76.76;98447.75;6235046;22;20167;-89
2024/04/19 06:38:04;;;;;;;0.80;0.80;;;;;;;6.04;76.69;98434.91;6272551;22;19996;-89
2024/04/19 06:40:29;;;;;;;0.90;0.90;;;;;;;6.09;76.68;98439.53;6274173;22;19996;-88
2024/04/19 06:42:55;;;;;;;0.90;0.90;;;;;;;6.29;76.10;98437.72;6278196;22;20008;-88
2024/04/19 06:45:20;;;;;;;0.90;0.90;;;;;;;6.68;74.95;98419.84;6279130;22;19996;-89
2024/04/19 06:47:46;;;;;;;0.90;0.90;;;;;;;6.71;73.00;98419.09;6277091;22;20071;-86
2024/04/19 06:50:12;;;;;;;0.90;0.90;;;;;;;6.86;72.35;98406.41;6195768;22;20004;-87
2024/04/19 06:52:37;;;;;;;0.90;0.90;;;;;;;6.83;71.56;98400.09;6238773;22;20273;-89
2024/04/19 06:55:03;;;;;;;0.90;0.90;;;;;;;6.90;70.99;98402.13;6277744;22;20059;-87
2024/04/19 06:57:28;;;;;;;0.90;0.90;;;;;;;7.05;71.06;98396.50;6248208;22;20008;-87
2024/04/19 06:59:54;;;;;;;0.90;0.90;;;;;;;7.15;70.10;98391.59;6297109;22;20017;-88
2024/04/19 07:02:20;;;;;;;0.80;0.80;;;;;;;6.91;70.56;98385.38;6251687;22;20028;-90
2024/04/19 07:04:45;;;;;;;0.80;0.80;;;;;;;7.21;69.82;98382.94;6290071;22;20000;-87
2024/04/19 07:07:11;;;;;;;0.90;0.90;;;;;;;7.08;69.48;98388.66;6246209;22;19996;-86
2024/04/19 07:09:36;;;;;;;0.90;0.90;;;;;;;7.25;68.76;98386.63;6203838;22;20077;-87
2024/04/19 07:12:02;;;;;;;0.80;0.80;;;;;;;7.00;68.89;98393.69;6234705;22;19996;-88
2024/04/19 07:14:28;;;;;;;0.90;0.90;;;;;;;6.97;70.68;98384.69;6275381;22;20006;-89
2024/04/19 07:16:53;;;;;;;0.90;0.90;;;;;;;6.76;70.91;98385.69;6195271;22;20003;-90
2024/04/19 07:19:19;;;;;;;0.90;0.90;;;;;;;6.41;71.28;98381.66;6275872;22;20003;-88
2024/04/19 07:21:45;;;;;;;0.90;0.90;;;;;;;6.27;73.16;98357.25;6274601;22;20009;-89
2024/04/19 07:24:10;;;;;;;0.90;0.90;;;;;;;6.03;74.69;98381.00;6274896;22;20001;-89
2024/04/19 07:26:38;;;;;;;0.90;0.90;;;;;;;5.89;76.92;98379.50;6274308;22;20001;-88
2024/04/19 07:29:07;;;;;;;0.90;0.90;;;;;;;5.82;76.24;98374.81;6194083;22;20013;-89
2024/04/19 07:31:34;;;;;;;0.90;0.90;;;;;;;5.87;76.73;98392.69;6274646;22;20013;-89
2024/04/19 07:33:59;;;;;;;0.90;0.90;;;;;;;5.83;75.64;98371.31;6274597;22;20000;-90
2024/04/19 07:36:24;;;;;;;0.90;0.90;;;;;;;5.74;76.90;98369.16;6233963;22;19997;-88
2024/04/19 07:38:50;;;;;;;0.85;0.85;;;;;;;5.77;77.51;98366.66;6235080;22;19997;-89
2024/04/19 07:41:18;;;;;;;0.85;0.85;;;;;;;5.87;76.44;98360.00;6235069;22;19996;-90
2024/04/19 07:43:44;;;;;;;0.90;0.90;;;;;;;5.97;77.34;98356.03;6274871;22;19996;-88
2024/04/19 07:46:09;;;;;;;0.80;0.80;;;;;;;6.06;76.22;98345.81;6274199;22;20001;-89
2024/04/19 07:48:35;;;;;;;0.90;0.90;;;;;;;5.97;76.17;98348.09;6232770;22;20001;-89
2024/04/19 07:51:01;;;;;;;0.80;0.80;;;;;;;5.89;75.96;98345.06;6274630;22;20009;-90
2024/04/19 07:53:27;;;;;;;0.90;0.90;;;;;;;5.75;75.96;98333.94;6233616;22;19993;-89
2024/04/19 07:55:53;;;;;;;0.80;0.80;;;;;;;5.71;76.86;98339.06;6233159;22;19996;-89
2024/04/19 07:58:23;;;;;;;0.90;0.90;;;;;;;5.60;76.96;98336.81;6270736;22;19992;-89
2024/04/19 08:00:48;;;;;;;0.90;0.90;;;;;;;5.47;79.00;98330.97;6228058;22;19997;-90
2024/04/19 08:03:14;;;;;;;0.90;0.90;;;;;;;5.45;80.25;98335.28;6226899;22;19996;-90
2024/04/19 08:05:39;;;;;;;0.90;0.90;;;;;;;5.42;80.67;98328.16;6229564;22;20012;-89
2024/04/19 08:08:05;;;;;;;0.90;0.90;;;;;;;5.43;80.27;98329.94;6229372;22;20012;-88
2024/04/19 08:10:30;;;;;;;0.90;0.90;;;;;;;5.35;80.51;98331.34;6227952;22;20011;-89
2024/04/19 08:12:56;;;;;;;0.90;0.90;;;;;;;5.35;80.81;98326.94;6269825;22;20001;-88
2024/04/19 08:15:21;;;;;;;1.00;1.00;;;;;;;5.27;81.91;98307.22;6271253;22;19992;-88
2024/04/19 08:17:47;;;;;;;0.90;0.90;;;;;;;5.22;82.61;98314.06;6230908;22;19996;-90
2024/04/19 08:20:13;;;;;;;0.90;0.90;;;;;;;5.17;83.22;98305.00;6231341;22;20414;-88
2024/04/19 08:22:39;;;;;;;0.90;0.90;;;;;;;5.07;83.17;98308.09;6230627;22;19996;-89
2024/04/19 08:25:04;;;;;;;0.90;0.90;;;;;;;5.10;84.31;98325.00;6272449;22;20003;-88
2024/04/19 08:27:30;;;;;;;0.90;0.90;;;;;;;5.02;85.21;98307.88;6274622;22;19993;-88
2024/04/19 08:29:55;;;;;;;1.00;1.00;;;;;;;5.10;85.63;98313.53;6232577;22;19997;-89
2024/04/19 08:32:21;;;;;;;0.90;0.90;;;;;;;5.09;86.00;98306.44;6233810;22;20004;-88
2024/04/19 08:34:48;;;;;;;0.90;0.90;;;;;;;5.09;86.15;98311.72;6232903;22;20025;-88
2024/04/19 08:37:13;;;;;;;1.00;1.00;;;;;;;5.10;86.16;98302.94;6194959;22;20089;-89
2024/04/19 08:39:39;;;;;;;1.00;1.00;;;;;;;5.14;85.36;98305.78;6194175;22;19997;-89
2024/04/19 08:42:08;;;;;;;1.00;1.00;;;;;;;5.20;85.71;98293.66;6232885;22;19996;-88
2024/04/19 08:44:34;;;;;;;0.90;0.90;;;;;;;5.20;86.54;98284.00;6233322;22;20404;-87
2024/04/19 08:47:01;;;;;;;0.90;0.90;;;;;;;5.18;86.81;98292.72;6193428;22;20053;-87
2024/04/19 08:49:28;;;;;;;0.95;0.95;;;;;;;5.21;86.51;98293.72;6194411;22;20009;-88
2024/04/19 08:51:55;;;;;;;;;;;;;;;5.09;85.88;98286.19;6235492;22;20288;-87
2024/04/19 08:54:24;;;;;;;1.00;1.00;;;;;;;5.02;87.87;98293.75;6275675;22;19931;-87
2024/04/19 08:56:49;;;;;;;1.00;1.00;;;;;;;4.84;88.58;98278.03;6195835;22;20415;-88
2024/04/19 08:59:18;;;;;;;0.90;0.90;;;;;;;4.85;88.01;98278.09;6235449;22;20000;-88
2024/04/19 09:01:43;;;;;;;1.00;1.00;;;;;;;4.86;89.09;98278.97;6235441;22;20036;-89
2024/04/19 09:04:09;;;;;;;0.90;0.90;;;;;;;4.84;90.05;98267.47;6235532;22;20001;-87
2024/04/19 09:06:35;;;;;;;1.00;1.00;;;;;;;4.97;89.84;98267.13;6276524;22;20433;-88
2024/04/19 09:09:02;;;;;;;0.98;0.98;;;;;;;4.86;89.02;98261.38;6276480;22;19993;-88
2024/04/19 09:11:28;;;;;;;1.00;1.00;;;;;;;4.77;88.10;98257.44;6276147;22;20011;-87
2024/04/19 09:13:53;;;;;;;1.00;1.00;;;;;;;4.73;86.96;98253.75;6235037;22;20000;-87
2024/04/19 09:16:20;;;;;;;0.90;0.90;;;;;;;4.68;88.33;98254.38;6234113;22;20001;-87
2024/04/19 09:18:51;;;;;;;1.00;1.00;;;;;;;4.64;88.30;98242.75;6275909;22;20004;-87
2024/04/19 09:21:17;;;;;;;1.00;1.00;;;;;;;4.63;89.89;98244.50;6275912;22;20004;-87
2024/04/19 09:23:42;;;;;;;0.90;0.90;;;;;;;4.66;88.24;98241.13;6234663;22;20015;-87
2024/04/19 09:26:08;;;;;;;0.90;0.90;;;;;;;4.57;87.57;98227.50;6234665;22;20001;-87
2024/04/19 09:28:33;;;;;;;0.90;0.90;;;;;;;4.67;88.66;98228.81;6234251;22;20024;-86
2024/04/19 09:30:59;;;;;;;1.00;1.00;;;;;;;4.70;88.81;98226.31;6275456;22;20000;-87
2024/04/19 09:33:25;;;;;;;0.90;0.90;;;;;;;4.71;88.75;98229.00;6276625;22;20021;-86
2024/04/19 09:35:51;;;;;;;0.95;0.95;;;;;;;4.68;89.57;98218.28;6233682;22;20009;-86
2024/04/19 09:38:19;;;;;;;0.90;0.90;;;;;;;4.65;87.81;98212.88;6234329;22;20018;-87
2024/04/19 09:40:46;;;;;;;0.90;0.90;;;;;;;4.57;89.52;98212.53;6194338;22;19997;-87
2024/04/19 09:43:15;;;;;;;1.10;1.10;;;;;;;4.68;89.04;98198.91;6195107;22;20434;-87
2024/04/19 09:45:47;;;;;;;0.90;0.90;;;;;;;4.55;89.66;98202.72;6234305;22;20077;-87
2024/04/19 09:48:17;;;;;;;1.00;1.00;;;;;;;4.59;88.29;98188.81;6232335;22;20011;-88
2024/04/19 09:50:47;;;;;;;0.90;0.90;;;;;;;4.60;88.66;98181.00;6191507;22;20427;-88
2024/04/19 09:53:19;;;;;;;1.00;1.00;;;;;;;4.47;87.87;98191.84;6229511;22;20152;-88
2024/04/19 09:56:10;;;;;;;0.90;0.90;;;;;;;4.47;89.18;98177.75;6227544;22;20008;-88
2024/04/19 09:58:37;;;;;;;1.00;1.00;;;;;;;4.43;89.71;98173.16;6227941;22;20412;-86
2024/04/19 10:01:03;;;;;;;0.90;0.90;;;;;;;4.32;89.00;98160.38;6263873;22;20013;-89
2024/04/19 10:03:29;;;;;;;1.00;1.00;;;;;;;4.36;89.37;98162.34;6270375;22;20093;-87
2024/04/19 10:05:55;;;;;;;0.90;0.90;;;;;;;4.41;90.23;98154.59;6269936;22;20058;-88
2024/04/19 10:08:23;;;;;;;1.00;1.00;;;;;;;4.46;89.67;98157.44;6269293;22;20016;-87
2024/04/19 10:10:57;;;;;;;1.00;1.00;;;;;;;4.42;90.60;98151.13;6270776;22;20001;-88
2024/04/19 10:13:24;;;;;;;1.00;1.00;;;;;;;4.35;90.08;98149.03;6270948;22;20510;-88
2024/04/19 10:15:50;;;;;;;1.00;1.00;;;;;;;4.29;90.94;98131.19;6226792;22;20013;-88
2024/04/19 10:18:15;;;;;;;1.00;1.00;;;;;;;4.19;90.39;98142.19;6228669;22;20001;-88
2024/04/19 10:20:41;;;;;;;1.00;1.00;;;;;;;4.25;90.53;98126.59;6228337;22;19997;-88
2024/04/19 10:23:12;;;;;;;0.90;0.90;;;;;;;4.25;90.14;98116.03;6270130;22;20024;-87
2024/04/19 10:25:38;;;;;;;1.00;1.00;;;;;;;4.24;89.64;98135.38;6269764;22;20004;-86
2024/04/19 10:28:09;;;;;;;1.00;1.00;;;;;;;4.27;89.41;98124.94;6269599;22;20025;-87
2024/04/19 10:30:35;;;;;;;0.95;0.95;;;;;;;4.31;90.49;98120.69;6189672;22;20515;-87
2024/04/19 10:33:01;;;;;;;0.95;0.95;;;;;;;4.40;91.37;98114.91;6228978;22;20058;-86
2024/04/19 10:35:27;;;;;;;1.00;1.00;;;;;;;4.38;90.83;98113.09;6228420;22;20014;-87
2024/04/19 10:37:52;;;;;;;0.90;0.90;;;;;;;4.44;90.34;98116.84;6188852;22;20000;-87
2024/04/19 10:40:21;;;;;;;0.93;0.93;;;;;;;4.48;89.61;98116.16;6269639;22;19997;-87
2024/04/19 10:42:48;;;;;;;1.00;1.00;;;;;;;4.43;89.09;98112.41;6270290;22;20442;-87
2024/04/19 10:45:14;;;;;;;0.90;0.90;;;;;;;4.46;88.76;98115.19;6229930;22;20005;-87
2024/04/19 10:47:41;;;;;;;1.00;1.00;;;;;;;4.47;89.10;98090.56;6192995;22;19993;-87
2024/04/19 10:50:07;;;;;;;1.02;1.02;;;;;;;4.49;88.82;98084.50;6191565;22;20015;-87
2024/04/19 10:52:37;;;;;;;1.00;1.00;;;;;;;4.44;88.82;98085.16;6230544;22;20004;-87
2024/04/19 10:55:05;;;;;;;1.00;1.00;;;;;;;4.53;91.04;98080.25;6274885;22;20514;-87
2024/04/19 10:57:32;;;;;;;1.00;1.00;;;;;;;4.54;89.83;98074.13;6233288;22;20076;-86
2024/04/19 10:59:57;;;;;;;1.00;1.00;;;;;;;4.57;90.92;98075.16;6236240;22;20016;-86
2024/04/19 11:02:25;;;;;;;1.00;1.00;;;;;;;4.61;90.75;98069.19;6231788;22;20040;-87
2024/04/19 11:04:51;;;;;;;1.00;1.00;;;;;;;4.77;90.62;98067.16;6270362;22;20004;-87
2024/04/19 11:07:17;;;;;;;0.90;0.90;;;;;;;4.80;90.24;98069.94;6190218;22;20280;-87
2024/04/19 11:09:42;;;;;;;0.90;0.90;;;;;;;4.84;89.94;98058.66;6314949;22;20053;-87
2024/04/19 11:12:09;;;;;;;0.90;0.90;;;;;;;4.83;90.48;98049.81;6270458;22;20004;-88
2024/04/19 11:14:35;;;;;;;1.02;1.02;;;;;;;4.86;90.76;98054.31;6231482;22;20004;-87
2024/04/19 11:17:01;;;;;;;0.90;0.90;;;;;;;4.86;90.94;98046.41;6232604;22;20084;-86
2024/04/19 11:19:27;;;;;;;0.90;0.90;;;;;;;4.84;91.70;98046.34;6273731;22;20001;-87
2024/04/19 11:21:54;;;;;;;0.90;0.90;;;;;;;4.89;90.49;98046.53;6232815;22;20431;-87
2024/04/19 11:24:19;;;;;;;0.90;0.90;;;;;;;4.91;91.76;98047.50;6275280;22;20060;-87
2024/04/19 11:26:46;;;;;;;0.90;0.90;;;;;;;4.85;91.56;98032.28;6191434;22;20315;-88
2024/04/19 11:29:12;;;;;;;1.10;1.10;;;;;;;4.80;100.00;98039.13;6228852;22;20001;-87
2024/04/19 11:31:39;;;;;;;0.90;0.90;;;;;;;4.78;100.00;98038.16;6189565;22;20708;-85
2024/04/19 11:34:04;;;;;;;0.90;0.90;;;;;;;4.77;100.00;98038.09;6228541;22;20019;-86
2024/04/19 11:36:33;;;;;;;0.90;0.90;;;;;;;4.80;100.00;98038.22;6272139;22;20004;-87
2024/04/19 11:38:58;;;;;;;0.90;0.90;;;;;;;4.80;96.39;98023.28;6230471;22;20011;-87
2024/04/19 11:41:24;;;;;;;0.90;0.90;;;;;;;4.80;91.86;98023.28;6191697;22;19996;-87